createdAt,value
2024-03-07T00:01:49.712Z,98423.6
2024-03-07T00:07:25.241Z,98424.2
2024-03-07T00:13:01.243Z,98414.4
2024-03-07T00:18:37.059Z,98416.4
2024-03-07T00:24:13.049Z,98407.5
2024-03-07T00:29:49.356Z,98407.4
2024-03-07T00:35:25.497Z,98401.9
2024-03-07T00:41:02.002Z,98392.3
2024-03-07T00:46:37.941Z,98384.7
2024-03-07T00:52:13.299Z,98375
2024-03-07T00:57:48.379Z,98362.8
2024-03-07T01:03:24.133Z,98347.9
2024-03-07T01:08:59.867Z,98342.5
2024-03-07T01:14:35.580Z,98328.5
2024-03-07T01:20:12.298Z,98329.6
2024-03-07T01:25:52.185Z,98315.7
2024-03-07T01:31:27.062Z,98304.7
2024-03-07T01:37:08.905Z,98310.9
2024-03-07T01:42:45.768Z,98298.2
2024-03-07T01:48:21.053Z,98283.6
2024-03-07T01:53:57.086Z,98286.5
2024-03-07T01:59:32.925Z,98278.9
2024-03-07T02:05:08.580Z,98270.7
2024-03-07T02:10:44.516Z,98264.5
2024-03-07T02:16:20.851Z,98261.8
2024-03-07T02:21:56.700Z,98252.3
2024-03-07T02:27:33.490Z,98238
2024-03-07T02:33:09.889Z,98220.3
2024-03-07T02:38:47.125Z,98218
2024-03-07T02:44:23.756Z,98211.6
2024-03-07T02:49:59.973Z,98204.7
2024-03-07T02:55:35.318Z,98188.8
2024-03-07T03:01:11.687Z,98173.9
2024-03-07T03:06:47.930Z,98161.9
2024-03-07T03:12:23.221Z,98152.2
2024-03-07T03:17:59.205Z,98144.6
2024-03-07T03:23:36.811Z,98141.2
2024-03-07T03:29:13.396Z,98128
2024-03-07T03:34:49.398Z,98124.5
2024-03-07T03:40:25.614Z,98119.7
2024-03-07T03:46:01.980Z,98115.5
2024-03-07T03:51:37.592Z,98112.2
2024-03-07T03:57:13.157Z,98115.6
2024-03-07T04:02:49.369Z,98114.5
2024-03-07T04:08:27.908Z,98113.2
2024-03-07T04:14:04.506Z,98101.7
2024-03-07T04:19:39.775Z,98104.3
2024-03-07T04:25:15.300Z,98090.6
2024-03-07T04:30:51.980Z,98087.7
2024-03-07T04:36:28.020Z,98088.3
2024-03-07T04:42:03.634Z,98082.3
2024-03-07T04:47:40.142Z,98080.9
2024-03-07T04:53:16.799Z,98073.2
2024-03-07T04:58:53.023Z,98060
2024-03-07T05:04:29.246Z,98051.9
2024-03-07T05:10:04.419Z,98056.8
2024-03-07T05:15:41.990Z,98046.8
2024-03-07T05:21:18.886Z,98053.6
2024-03-07T05:26:55.090Z,98050.6
2024-03-07T05:32:32.573Z,98048.1
2024-03-07T05:38:12.216Z,98042.1
2024-03-07T05:43:48.002Z,98048.2
2024-03-07T05:49:23.745Z,98033.3
2024-03-07T05:54:59.530Z,98040.6
2024-03-07T06:00:36.164Z,98047.7
2024-03-07T06:06:12.277Z,98028.1
2024-03-07T06:11:48.351Z,98023.3
2024-03-07T06:17:24.972Z,98006
2024-03-07T06:23:01.881Z,98026
2024-03-07T06:28:37.763Z,98020.5
2024-03-07T06:34:13.553Z,98007.6
2024-03-07T06:39:49.400Z,98015.2
2024-03-07T06:45:25.889Z,98017.5
2024-03-07T06:51:01.491Z,98014.2
2024-03-07T06:56:38.013Z,98013.2
2024-03-07T07:02:14.259Z,97999.6
2024-03-07T07:07:49.698Z,97998.6
2024-03-07T07:13:25.155Z,97994.3
2024-03-07T07:19:00.652Z,98005.2
2024-03-07T07:24:36.234Z,97992
2024-03-07T07:30:12.707Z,97998.9
2024-03-07T07:35:48.416Z,97999.8
2024-03-07T07:41:23.987Z,97993.5
2024-03-07T07:47:00.737Z,97983.2
2024-03-07T07:52:36.592Z,97978.4
2024-03-07T07:58:12.843Z,97977.5
2024-03-07T08:03:48.766Z,97979.3
2024-03-07T08:09:24.900Z,97955.9
2024-03-07T08:15:00.993Z,97964.5
2024-03-07T08:20:37.607Z,97943.2
2024-03-07T08:26:14.903Z,97949.4
2024-03-07T08:31:50.857Z,97941.8
2024-03-07T08:37:27.526Z,97922.7
2024-03-07T08:43:03.428Z,97932
2024-03-07T08:48:40.736Z,97911.4
2024-03-07T08:54:17.814Z,97893
2024-03-07T08:59:54.702Z,97907.3
2024-03-07T09:05:32.288Z,97887.3
2024-03-07T09:11:08.768Z,97907.8
2024-03-07T09:16:45.160Z,97895.4
2024-03-07T09:22:20.477Z,97882.6
2024-03-07T09:27:57.456Z,97883.4
2024-03-07T09:33:34.379Z,97883.8
2024-03-07T09:39:11.416Z,97889.1
2024-03-07T09:44:48.101Z,97853.5
2024-03-07T09:50:26.317Z,97858
2024-03-07T09:56:01.932Z,97842.9
2024-03-07T10:01:37.649Z,97837.1
2024-03-07T10:07:13.141Z,97826.8
2024-03-07T10:12:49.319Z,97803
2024-03-07T10:18:25.548Z,97800.3
2024-03-07T10:24:02.101Z,97783.1
2024-03-07T10:29:38.543Z,97785.8
2024-03-07T10:35:14.620Z,97789.6
2024-03-07T10:40:51.025Z,97775.8
2024-03-07T10:46:26.360Z,97763.8
2024-03-07T10:52:02.003Z,97762.9
2024-03-07T10:57:38.691Z,97753.1
2024-03-07T11:03:16.553Z,97764
2024-03-07T11:08:52.421Z,97750.3
2024-03-07T11:14:29.470Z,97748.1
2024-03-07T11:20:05.151Z,97742.9
2024-03-07T11:25:41.671Z,97733.3
2024-03-07T11:31:18.013Z,97721.2
2024-03-07T11:36:53.782Z,97710.8
2024-03-07T11:42:30.858Z,97708.7
2024-03-07T11:48:07.894Z,97696.3
2024-03-07T11:53:45.305Z,97675.4
2024-03-07T11:59:22.152Z,97662.8
2024-03-07T12:04:58.034Z,97653.6
2024-03-07T12:10:33.665Z,97647.2
2024-03-07T12:16:10.034Z,97639.8
2024-03-07T12:21:47.146Z,97630.7
2024-03-07T12:27:22.274Z,97617.4
2024-03-07T12:32:59.129Z,97607.1
2024-03-07T12:38:36.357Z,97595.7
2024-03-07T12:44:14.868Z,97582.8
2024-03-07T12:49:50.419Z,97574
2024-03-07T12:55:26.705Z,97561.9
2024-03-07T13:01:02.633Z,97551.5
2024-03-07T13:06:39.031Z,97536.8
2024-03-07T13:12:15.921Z,97536.2
2024-03-07T13:17:52.950Z,97535.8
2024-03-07T13:23:30.078Z,97510.4
2024-03-07T13:29:06.203Z,97509.4
2024-03-07T13:34:41.845Z,97508
2024-03-07T13:40:17.762Z,97506.4
2024-03-07T13:45:53.743Z,97493.3
2024-03-07T13:51:29.764Z,97474.4
2024-03-07T13:57:06.700Z,97475.5
2024-03-07T14:02:43.411Z,97471.6
2024-03-07T14:08:19.604Z,97458.4
2024-03-07T14:13:55.633Z,97450
2024-03-07T14:19:31.233Z,97452
2024-03-07T14:25:07.316Z,97446.4
2024-03-07T14:30:44.054Z,97438.6
2024-03-07T14:36:20.417Z,97435
2024-03-07T14:41:56.504Z,97417.1
2024-03-07T14:47:32.692Z,97421
2024-03-07T14:53:09.695Z,97414.9
2024-03-07T14:58:45.652Z,97406.4
2024-03-07T15:04:21.283Z,97406
2024-03-07T15:09:57.315Z,97395
2024-03-07T15:15:33.444Z,97390.7
2024-03-07T15:21:09.681Z,97388.5
2024-03-07T15:26:49.153Z,97396.8
2024-03-07T15:32:26.001Z,97382.9
2024-03-07T15:38:02.687Z,97376.6
2024-03-07T15:43:39.037Z,97377.2
2024-03-07T15:49:14.934Z,97373.6
2024-03-07T15:54:50.444Z,97354.5
2024-03-07T16:00:26.558Z,97351.1
2024-03-07T16:06:02.460Z,97353.9
2024-03-07T16:11:39.953Z,97356
2024-03-07T16:17:16.853Z,97347.6
2024-03-07T16:22:52.748Z,97345.9
2024-03-07T16:28:28.908Z,97326.7
2024-03-07T16:34:05.418Z,97329
2024-03-07T16:39:41.649Z,97321.8
2024-03-07T16:45:17.920Z,97315.3
2024-03-07T16:50:54.505Z,97316.9
2024-03-07T16:56:31.506Z,97317.7
2024-03-07T17:02:08.214Z,97314.8
2024-03-07T17:07:45.691Z,97322.2
2024-03-07T17:13:23.915Z,97315.7
2024-03-07T17:19:00.611Z,97323.1
2024-03-07T17:24:37.693Z,97317.3
2024-03-07T17:30:17.756Z,97311.8
2024-03-07T17:35:54.503Z,97306.7
2024-03-07T17:41:31.936Z,97290.9
2024-03-07T17:47:07.315Z,97317
2024-03-07T17:52:44.229Z,97305.7
2024-03-07T17:58:20.286Z,97308.3
2024-03-07T18:03:55.871Z,97301.2
2024-03-07T18:09:31.990Z,97299.4
2024-03-07T18:15:22.393Z,97305.6
2024-03-07T18:20:59.288Z,97303.7
2024-03-07T18:26:35.391Z,97314
2024-03-07T18:32:11.556Z,97333.5
2024-03-07T18:37:47.006Z,97320.8
2024-03-07T18:43:22.527Z,97321.4
2024-03-07T18:48:58.670Z,97318.3
2024-03-07T18:54:34.614Z,97317.4
2024-03-07T19:00:10.911Z,97317
2024-03-07T19:05:48.602Z,97309.6
2024-03-07T19:11:26.457Z,97297.2
2024-03-07T19:17:03.205Z,97293.1
2024-03-07T19:22:38.901Z,97274.5
2024-03-07T19:28:14.216Z,97265.1
2024-03-07T19:33:52.088Z,97267.8
2024-03-07T19:39:29.521Z,97263.3
2024-03-07T19:45:06.071Z,97263.9
2024-03-07T19:50:42.560Z,97258.7
2024-03-07T19:56:20.473Z,97261
2024-03-07T20:01:56.054Z,97266.2
2024-03-07T20:07:32.270Z,97273
2024-03-07T20:13:08.168Z,97277.8
2024-03-07T20:18:44.472Z,97270.8
2024-03-07T20:24:21.515Z,97282.2
2024-03-07T20:29:57.567Z,97287
2024-03-07T20:35:34.072Z,97271.3
2024-03-07T20:41:09.855Z,97269.6
2024-03-07T20:46:45.602Z,97252.7
2024-03-07T20:52:20.912Z,97264.6
2024-03-07T20:57:58.003Z,97253.4
2024-03-07T21:03:35.839Z,97240.4
2024-03-07T21:09:12.012Z,97243.2
2024-03-07T21:14:47.933Z,97236.9
2024-03-07T21:20:25.175Z,97224.8
2024-03-07T21:26:01.494Z,97227.4
2024-03-07T21:31:37.106Z,97237.9
2024-03-07T21:37:12.806Z,97237.3
2024-03-07T21:42:48.845Z,97243
2024-03-07T21:48:26.040Z,97228
2024-03-07T21:54:03.002Z,97221.4
2024-03-07T21:59:40.463Z,97229.2
2024-03-07T22:05:17.727Z,97211.3
2024-03-07T22:10:55.515Z,97201.7
2024-03-07T22:16:32.795Z,97188.2
2024-03-07T22:22:11.381Z,97174.1
2024-03-07T22:27:47.884Z,97173.5
2024-03-07T22:33:24.895Z,97184.6
2024-03-07T22:39:02.603Z,97180.9
2024-03-07T22:44:39.638Z,97178.8
2024-03-07T22:50:32.082Z,97170.5
2024-03-07T22:56:10.264Z,97173.9
2024-03-07T23:01:51.750Z,97191.7
2024-03-07T23:07:28.163Z,97192.7
2024-03-07T23:13:04.659Z,97186.6
2024-03-07T23:18:43.523Z,97182.4
2024-03-07T23:24:21.180Z,97170.8
2024-03-07T23:29:58.929Z,97163.4
2024-03-07T23:35:37.858Z,97159.7
2024-03-07T23:41:14.762Z,97149
2024-03-07T23:46:51.863Z,97139
2024-03-07T23:52:28.089Z,97126.5
2024-03-07T23:58:04.333Z,97117.6
